Time;durP1;ratioP1;P1;durP2;ratioP2;P2;SDS_P1;SDS_P2;PMS_P1;PMS_P2;Temp;Humidity;BMP_temperature;BMP_pressure;BME280_temperature;BME280_humidity;BME280_pressure;Samples;Min_cycle;Max_cycle;Signal;HPM_P1;HPM_P2
2021/08/18 00:02:02;;;;;;;3.78;2.13;;;;;;;22.71;53.15;101615.81;5037169;28;20024;-73
2021/08/18 00:04:27;;;;;;;3.35;1.95;;;;;;;22.72;53.28;101611.41;5037394;28;20079;-73
2021/08/18 00:06:52;;;;;;;2.88;1.95;;;;;;;22.70;53.21;101608.78;5019671;28;20112;-73
2021/08/18 00:09:18;;;;;;;3.08;2.05;;;;;;;22.73;53.12;101624.56;5036178;28;20037;-73
2021/08/18 00:11:43;;;;;;;2.50;2.00;;;;;;;22.72;53.38;101627.25;5035768;28;20029;-73
2021/08/18 00:14:09;;;;;;;2.75;1.88;;;;;;;22.73;53.39;101628.94;5035752;28;20029;-73
2021/08/18 00:16:34;;;;;;;4.80;2.92;;;;;;;22.70;53.24;101618.47;5019195;28;20144;-73
2021/08/18 00:19:00;;;;;;;2.58;1.67;;;;;;;22.71;53.39;101620.22;5036005;28;20080;-73
2021/08/18 00:21:25;;;;;;;2.72;1.85;;;;;;;22.73;53.26;101623.69;5019339;28;20034;-73
2021/08/18 00:23:51;;;;;;;3.08;2.35;;;;;;;22.72;53.35;101621.97;5036208;28;20049;-73
2021/08/18 00:26:18;;;;;;;3.10;1.98;;;;;;;22.71;53.59;101620.22;5037490;28;20017;-73
2021/08/18 00:28:43;;;;;;;2.45;1.65;;;;;;;22.73;53.42;101618.41;5037383;28;20044;-73
2021/08/18 00:31:16;;;;;;;2.40;1.80;;;;;;;22.68;53.24;101612.31;5035658;28;20033;-73
2021/08/18 00:33:41;;;;;;;4.13;2.47;;;;;;;22.70;53.09;101618.47;5036249;28;20092;-73
2021/08/18 00:36:07;;;;;;;2.67;1.98;;;;;;;22.70;53.41;101618.47;5036208;28;20112;-73
2021/08/18 00:38:32;;;;;;;3.80;1.92;;;;;;;22.74;53.31;101628.06;5019976;28;20469;-73
2021/08/18 00:40:58;;;;;;;2.35;1.80;;;;;;;22.72;53.40;101621.97;5039597;28;20041;-74
2021/08/18 00:43:23;;;;;;;3.08;1.95;;;;;;;22.72;53.32;101624.59;5020904;28;20484;-74
2021/08/18 00:45:50;;;;;;;3.17;2.13;;;;;;;22.66;52.98;101611.47;5037485;28;20142;-73
2021/08/18 00:48:16;;;;;;;4.05;2.22;;;;;;;22.71;53.36;101626.38;5036945;28;20026;-73
2021/08/18 00:50:41;;;;;;;4.07;2.25;;;;;;;22.71;53.33;101615.81;5037740;28;20076;-73
2021/08/18 00:53:06;;;;;;;2.78;1.90;;;;;;;22.71;53.02;101609.66;5036053;28;20036;-73
2021/08/18 00:55:32;;;;;;;2.58;1.85;;;;;;;22.72;53.27;101614.91;5037073;28;20029;-73
2021/08/18 00:57:58;;;;;;;2.72;1.80;;;;;;;22.72;53.34;101614.91;5035748;28;20112;-71
2021/08/18 01:00:26;;;;;;;3.10;1.95;;;;;;;22.69;53.24;101609.69;5034818;28;20033;-71
2021/08/18 01:02:51;;;;;;;2.90;1.88;;;;;;;22.72;53.34;101612.25;5034977;28;20034;-72
2021/08/18 01:05:22;;;;;;;3.03;1.75;;;;;;;22.67;53.37;101611.44;5020107;28;20045;-73
2021/08/18 01:07:49;;;;;;;2.97;2.03;;;;;;;22.72;53.20;101611.41;5036494;28;20459;-73
2021/08/18 01:10:18;;;;;;;2.10;1.60;;;;;;;22.71;53.39;101605.28;5019488;28;20706;-73
2021/08/18 01:12:43;;;;;;;2.97;2.08;;;;;;;22.70;53.30;101608.78;5036482;28;20029;-73
2021/08/18 01:15:14;;;;;;;2.58;1.70;;;;;;;22.67;53.37;101602.66;5020091;28;20044;-73
2021/08/18 01:17:44;;;;;;;2.70;1.80;;;;;;;22.70;53.32;101608.78;5039104;28;20128;-73
2021/08/18 01:20:14;;;;;;;3.40;1.87;;;;;;;22.68;53.44;101607.94;5040243;28;20044;-73
2021/08/18 01:22:40;;;;;;;3.70;2.35;;;;;;;22.66;53.30;101603.56;5037491;28;20383;-73
2021/08/18 01:33:47;;;;;;;3.30;2.30;;;;;;;22.70;53.42;101618.47;4907625;23;2018175;-74
2021/08/18 01:36:13;;;;;;;3.67;1.95;;;;;;;22.70;53.34;101618.47;4906914;29;20044;-73
2021/08/18 01:38:38;;;;;;;3.03;2.10;;;;;;;22.66;53.45;101611.47;4922705;29;20036;-74
2021/08/18 01:41:04;;;;;;;2.50;1.70;;;;;;;22.70;53.27;101615.81;4922822;29;20115;-74
2021/08/18 01:43:29;;;;;;;2.47;1.80;;;;;;;22.69;53.33;101625.50;4922934;29;20516;-73
2021/08/18 01:45:54;;;;;;;2.75;1.85;;;;;;;22.66;53.38;101614.97;4891252;29;20478;-73
2021/08/18 01:48:23;;;;;;;2.97;1.98;;;;;;;22.69;53.37;101622.00;4891223;29;20040;-74
2021/08/18 01:50:51;;;;;;;2.35;1.63;;;;;;;22.62;53.29;101609.72;4922577;29;20027;-73
2021/08/18 01:53:27;;;;;;;3.65;2.00;;;;;;;22.65;53.40;101615.00;4939431;29;20033;-73
2021/08/18 01:55:55;;;;;;;2.83;2.10;;;;;;;22.67;53.41;101616.72;4939713;29;20036;-73
2021/08/18 01:58:20;;;;;;;3.17;2.13;;;;;;;22.69;53.23;101616.72;4906707;29;20028;-75
2021/08/18 02:00:46;;;;;;;2.25;1.55;;;;;;;22.67;53.31;101613.22;4922714;29;20082;-75
2021/08/18 02:03:11;;;;;;;2.80;2.30;;;;;;;22.64;53.33;101605.31;4922256;29;20385;-74
2021/08/18 02:05:37;;;;;;;2.25;1.40;;;;;;;22.64;53.54;101607.97;4906732;29;20522;-73
2021/08/18 02:08:03;;;;;;;2.63;1.75;;;;;;;22.69;53.35;101619.34;4922379;29;20425;-74
2021/08/18 02:10:29;;;;;;;2.33;1.80;;;;;;;22.67;53.33;101619.38;4939122;29;20483;-72
2021/08/18 02:12:55;;;;;;;2.63;1.77;;;;;;;22.64;53.38;101606.19;4922231;29;20038;-72
2021/08/18 02:15:23;;;;;;;2.47;1.70;;;;;;;22.67;53.37;101614.09;4922041;29;20067;-74
2021/08/18 02:17:49;;;;;;;2.40;1.60;;;;;;;22.64;53.27;101608.84;4921759;29;20066;-75
2021/08/18 02:20:19;;;;;;;3.88;2.10;;;;;;;22.65;53.30;101612.34;4939090;29;20028;-73
2021/08/18 02:22:44;;;;;;;2.80;1.80;;;;;;;22.64;53.41;101607.97;4922093;29;20087;-73
2021/08/18 02:25:10;;;;;;;2.55;1.75;;;;;;;22.64;53.40;101606.19;4906326;29;20036;-73
2021/08/18 02:27:36;;;;;;;3.58;2.10;;;;;;;22.68;53.33;101618.47;4906868;29;20477;-74
2021/08/18 02:30:03;;;;;;;3.85;2.40;;;;;;;22.63;53.44;101596.53;4925481;29;20091;-74
2021/08/18 02:32:29;;;;;;;3.30;1.90;;;;;;;22.64;53.32;101603.56;4947411;29;20126;-75
2021/08/18 02:34:54;;;;;;;2.10;1.58;;;;;;;22.65;53.20;101602.69;4942380;29;20098;-74
2021/08/18 02:37:20;;;;;;;2.25;1.50;;;;;;;22.59;53.40;101589.53;4944465;29;20031;-73
2021/08/18 02:39:45;;;;;;;2.50;1.88;;;;;;;22.66;53.40;101603.56;4928141;29;20387;-74
2021/08/18 02:42:11;;;;;;;3.20;1.90;;;;;;;22.66;53.30;101603.56;4941822;29;20118;-73
2021/08/18 02:44:36;;;;;;;2.85;1.60;;;;;;;22.67;53.30;101603.53;4940935;29;20031;-74
2021/08/18 02:47:02;;;;;;;2.88;1.88;;;;;;;22.64;53.31;101595.66;4924972;29;20071;-73
2021/08/18 02:49:27;;;;;;;2.35;1.60;;;;;;;22.65;53.34;101594.78;4940931;29;20039;-74
2021/08/18 02:51:53;;;;;;;1.75;1.30;;;;;;;22.66;53.39;101593.00;4925105;29;20039;-74
2021/08/18 02:54:18;;;;;;;2.47;1.83;;;;;;;22.59;53.43;101581.63;4924823;29;20027;-73
2021/08/18 02:56:44;;;;;;;2.88;1.80;;;;;;;22.66;53.26;101590.38;4940334;29;20027;-73
2021/08/18 02:59:11;;;;;;;2.28;1.63;;;;;;;22.64;53.34;101589.50;4940448;29;20485;-73
2021/08/18 03:01:39;;;;;;;2.67;1.58;;;;;;;22.66;53.42;101595.66;4925068;29;20046;-73
2021/08/18 03:04:05;;;;;;;1.88;1.17;;;;;;;22.66;53.11;101595.66;4940410;29;20462;-74
2021/08/18 03:06:30;;;;;;;2.17;1.40;;;;;;;22.56;53.43;101575.53;4940433;29;20039;-74
2021/08/18 03:08:56;;;;;;;2.17;1.60;;;;;;;22.64;53.27;101579.84;4924433;29;20103;-74
2021/08/18 03:11:21;;;;;;;2.08;1.40;;;;;;;22.64;53.38;101585.13;4924557;29;20495;-73
2021/08/18 03:13:46;;;;;;;2.75;1.77;;;;;;;22.65;53.26;101588.63;4957614;29;20074;-74
2021/08/18 03:16:12;;;;;;;2.13;1.35;;;;;;;22.61;53.23;101582.50;4908874;29;20035;-73
2021/08/18 03:18:37;;;;;;;2.28;1.38;;;;;;;22.64;53.24;101594.78;4924487;29;20063;-73
2021/08/18 03:21:03;;;;;;;2.50;1.60;;;;;;;22.63;53.34;101593.03;4924293;29;20131;-74
2021/08/18 03:23:28;;;;;;;2.42;1.45;;;;;;;22.63;53.32;101593.03;4940139;29;20027;-73
2021/08/18 03:25:54;;;;;;;2.65;1.42;;;;;;;22.63;53.38;101585.13;4924233;29;20038;-74
2021/08/18 03:28:19;;;;;;;2.85;1.63;;;;;;;22.64;53.25;101595.66;4925267;29;20023;-75
2021/08/18 03:30:44;;;;;;;3.25;1.90;;;;;;;22.61;53.42;101581.63;4941248;29;20050;-75
2021/08/18 03:33:10;;;;;;;1.85;1.23;;;;;;;22.64;53.30;101586.88;4909200;29;20063;-73
2021/08/18 03:35:35;;;;;;;2.45;1.70;;;;;;;22.63;53.26;101590.41;4940223;29;20045;-74
2021/08/18 03:38:01;;;;;;;2.50;1.73;;;;;;;22.61;53.16;101582.50;4939333;29;20042;-72
2021/08/18 03:40:26;;;;;;;2.38;1.48;;;;;;;22.58;53.41;101586.94;4956815;29;20094;-73
2021/08/18 03:42:52;;;;;;;2.67;2.03;;;;;;;22.63;53.35;101595.66;4923745;29;20378;-73
2021/08/18 03:45:17;;;;;;;2.67;1.85;;;;;;;22.62;53.30;101588.66;4908363;29;20034;-73
2021/08/18 03:47:43;;;;;;;3.50;1.92;;;;;;;22.59;53.27;101579.00;4939682;29;20059;-75
2021/08/18 03:50:09;;;;;;;2.22;1.55;;;;;;;22.61;53.49;101581.63;4923679;29;20031;-73
2021/08/18 03:52:39;;;;;;;2.38;1.33;;;;;;;22.63;53.33;101598.31;4939951;29;20031;-72
2021/08/18 03:55:05;;;;;;;1.90;1.30;;;;;;;22.59;53.37;101584.28;4956594;29;20031;-73
2021/08/18 03:57:30;;;;;;;1.80;1.42;;;;;;;22.59;53.42;101588.69;4956493;29;20058;-73
2021/08/18 03:59:56;;;;;;;2.97;2.13;;;;;;;22.63;53.31;101591.28;4923479;29;20058;-72
2021/08/18 04:02:21;;;;;;;1.92;1.55;;;;;;;22.56;53.30;101579.06;4923579;29;20039;-73
2021/08/18 04:04:46;;;;;;;2.15;1.45;;;;;;;22.52;53.41;101574.69;4923639;29;20035;-74
2021/08/18 04:07:12;;;;;;;4.35;2.30;;;;;;;22.56;53.37;101579.06;4939527;29;20176;-73
2021/08/18 04:09:37;;;;;;;3.05;1.85;;;;;;;22.62;53.31;101594.78;4923370;29;20046;-73
2021/08/18 04:12:02;;;;;;;1.80;1.40;;;;;;;22.61;53.38;101590.41;4960708;29;20130;-76
2021/08/18 04:14:28;;;;;;;3.05;1.70;;;;;;;22.61;53.58;101589.53;4944340;29;20095;-76
2021/08/18 04:16:53;;;;;;;2.08;1.55;;;;;;;22.61;53.42;101587.78;4943144;29;20034;-75
2021/08/18 04:19:18;;;;;;;2.83;1.58;;;;;;;22.54;53.25;101580.84;4928146;29;20031;-75
2021/08/18 04:21:44;;;;;;;2.30;1.27;;;;;;;22.60;53.44;101590.41;4925161;29;20099;-75
2021/08/18 04:24:09;;;;;;;2.78;1.52;;;;;;;22.57;53.55;101590.47;4928306;29;20031;-75
2021/08/18 04:26:35;;;;;;;2.47;1.58;;;;;;;22.59;53.28;101589.53;4911919;29;20031;-75
2021/08/18 04:29:00;;;;;;;2.30;1.40;;;;;;;22.58;53.37;101582.56;4912546;29;20384;-76
2021/08/18 04:31:25;;;;;;;2.42;1.77;;;;;;;22.59;53.37;101594.81;4911819;29;20113;-75
2021/08/18 04:33:51;;;;;;;2.35;1.50;;;;;;;22.58;53.38;101585.19;4942814;29;20573;-77
2021/08/18 04:36:16;;;;;;;2.10;1.60;;;;;;;22.59;53.30;101591.34;4926966;29;20027;-75
2021/08/18 04:38:42;;;;;;;2.13;1.42;;;;;;;22.59;53.35;101594.81;4942607;29;20027;-75
2021/08/18 04:41:08;;;;;;;4.47;1.60;;;;;;;22.61;53.38;101594.81;4927562;29;20035;-76
2021/08/18 04:43:33;;;;;;;2.42;1.75;;;;;;;22.58;53.23;101586.94;4943888;29;20031;-77
2021/08/18 04:45:58;;;;;;;2.83;1.40;;;;;;;22.60;53.40;101590.41;4911267;29;20038;-76
2021/08/18 04:48:24;;;;;;;2.08;1.45;;;;;;;22.57;53.41;101579.94;4927844;28;20107;-76
2021/08/18 04:50:49;;;;;;;1.80;1.23;;;;;;;22.58;53.21;101579.03;4960468;29;20433;-76
2021/08/18 04:53:15;;;;;;;1.98;1.73;;;;;;;22.55;53.24;101574.66;4959209;29;20485;-76
2021/08/18 04:55:41;;;;;;;2.17;1.42;;;;;;;22.59;53.28;101583.44;4942398;29;20035;-76
2021/08/18 04:58:06;;;;;;;2.45;1.48;;;;;;;22.59;53.06;101586.06;4942301;29;20043;-75
2021/08/18 05:00:32;;;;;;;2.40;1.55;;;;;;;22.57;53.30;101574.66;4926490;29;20032;-76
2021/08/18 05:02:57;;;;;;;2.13;1.35;;;;;;;22.58;53.38;101572.00;4926253;29;20521;-75
2021/08/18 05:05:23;;;;;;;2.42;1.77;;;;;;;22.60;53.35;101580.75;4942324;29;20452;-76
2021/08/18 05:07:50;;;;;;;2.60;1.40;;;;;;;22.59;53.28;101573.72;4941848;29;20054;-75
2021/08/18 05:10:16;;;;;;;3.33;2.03;;;;;;;22.57;53.06;101575.53;4927147;29;20031;-75
2021/08/18 05:12:41;;;;;;;2.75;1.73;;;;;;;22.56;53.35;101572.91;4927452;29;20384;-75
2021/08/18 05:15:07;;;;;;;2.25;1.15;;;;;;;22.59;53.35;101579.00;4926603;29;20034;-75
2021/08/18 05:17:32;;;;;;;1.33;1.02;;;;;;;22.56;53.38;101570.28;4927231;29;20035;-75
2021/08/18 05:19:57;;;;;;;3.03;1.77;;;;;;;22.60;53.39;101574.59;4944346;29;20035;-75
2021/08/18 05:22:23;;;;;;;2.53;1.60;;;;;;;22.55;53.32;101563.25;4930355;29;20039;-75
2021/08/18 05:24:48;;;;;;;3.25;1.70;;;;;;;22.55;53.36;101563.25;4929503;29;20098;-76
2021/08/18 05:27:14;;;;;;;1.95;1.73;;;;;;;22.56;53.39;101563.25;4913988;29;20035;-75
2021/08/18 05:29:39;;;;;;;2.83;2.22;;;;;;;22.60;53.46;101569.34;4929451;29;20031;-76
2021/08/18 05:32:05;;;;;;;2.00;1.42;;;;;;;22.59;53.35;101568.47;4944657;29;20059;-75
2021/08/18 05:34:30;;;;;;;2.45;1.58;;;;;;;22.59;53.38;101568.47;4929078;29;20508;-74
2021/08/18 05:36:56;;;;;;;1.58;1.20;;;;;;;22.59;53.33;101565.81;4961336;29;20094;-76
2021/08/18 05:39:21;;;;;;;2.10;1.38;;;;;;;22.59;53.31;101567.63;4944713;29;20094;-75
2021/08/18 05:41:46;;;;;;;1.77;1.10;;;;;;;22.57;53.51;101566.75;4928337;29;20037;-76
2021/08/18 05:44:12;;;;;;;1.50;1.23;;;;;;;22.60;53.37;101574.59;4913066;29;20062;-76
2021/08/18 05:46:37;;;;;;;1.88;1.10;;;;;;;22.55;53.36;101564.13;4928240;29;20038;-76
2021/08/18 05:49:02;;;;;;;1.60;1.17;;;;;;;22.54;53.26;101567.66;4931767;29;20028;-75
2021/08/18 05:51:28;;;;;;;2.33;1.52;;;;;;;22.58;53.38;101571.13;4947200;29;20126;-76
2021/08/18 05:53:53;;;;;;;1.95;1.40;;;;;;;22.53;53.29;101565.91;4946558;29;20039;-76
2021/08/18 05:56:19;;;;;;;1.92;1.42;;;;;;;22.59;53.30;101568.47;4930530;29;20120;-75
2021/08/18 05:58:45;;;;;;;1.55;1.17;;;;;;;22.55;53.53;101558.84;4946777;29;20019;-75
2021/08/18 06:01:10;;;;;;;3.60;2.08;;;;;;;22.56;53.43;101567.63;4932018;29;20062;-76
2021/08/18 06:03:36;;;;;;;2.15;1.45;;;;;;;22.60;53.46;101566.69;4968366;29;20023;-75
2021/08/18 06:06:02;;;;;;;1.73;1.10;;;;;;;22.60;53.30;101569.34;4950491;29;20059;-74
2021/08/18 06:08:27;;;;;;;2.80;1.50;;;;;;;22.58;53.47;101572.00;4934871;29;20032;-75
2021/08/18 06:10:53;;;;;;;2.05;1.38;;;;;;;22.59;53.34;101568.47;4934185;29;20031;-76
2021/08/18 06:13:18;;;;;;;2.03;1.35;;;;;;;22.56;53.36;101567.63;4949891;29;20039;-75
2021/08/18 06:15:43;;;;;;;2.35;1.30;;;;;;;22.51;53.48;101554.50;4949612;29;20058;-75
2021/08/18 06:18:09;;;;;;;2.25;1.38;;;;;;;22.59;53.62;101570.25;4918141;29;20031;-76
2021/08/18 06:20:34;;;;;;;2.35;1.50;;;;;;;22.57;53.29;101567.63;4932923;29;20039;-75
2021/08/18 06:22:59;;;;;;;2.05;1.20;;;;;;;22.59;53.34;101576.38;4934016;29;20027;-75
2021/08/18 06:25:25;;;;;;;2.20;1.30;;;;;;;22.52;53.34;101564.16;4933787;29;20031;-75
2021/08/18 06:27:50;;;;;;;2.33;1.30;;;;;;;22.57;53.42;101574.66;4933621;29;20110;-75
2021/08/18 06:30:16;;;;;;;3.40;1.40;;;;;;;22.60;53.38;101580.75;4917605;29;20031;-75
2021/08/18 06:32:42;;;;;;;1.92;1.30;;;;;;;22.58;53.38;101579.03;4946356;29;20047;-75
2021/08/18 06:35:08;;;;;;;2.42;1.40;;;;;;;22.59;53.35;101578.16;4945505;29;20063;-76
2021/08/18 06:37:34;;;;;;;1.52;1.10;;;;;;;22.60;53.42;101580.75;4929506;29;20034;-75
2021/08/18 06:39:59;;;;;;;1.85;1.13;;;;;;;22.57;53.50;101574.66;4944642;29;20035;-76
2021/08/18 06:42:25;;;;;;;1.77;1.10;;;;;;;22.62;53.37;101584.25;4944361;29;20031;-77
2021/08/18 06:44:51;;;;;;;2.30;1.58;;;;;;;22.62;53.32;101584.25;4944147;29;20470;-76
2021/08/18 06:47:17;;;;;;;1.65;1.10;;;;;;;22.59;53.40;101572.88;4943616;29;20063;-76
2021/08/18 06:49:44;;;;;;;1.73;1.23;;;;;;;22.63;53.29;101582.50;4928051;29;20052;-75
2021/08/18 06:52:09;;;;;;;1.45;1.02;;;;;;;22.58;53.34;101569.38;4943034;29;20031;-75
2021/08/18 06:54:35;;;;;;;2.08;1.55;;;;;;;22.63;53.39;101574.56;4943997;29;20039;-76
2021/08/18 06:57:00;;;;;;;1.83;1.30;;;;;;;22.65;53.44;101578.94;4945937;29;20154;-75
2021/08/18 06:59:25;;;;;;;1.95;1.30;;;;;;;22.61;53.32;101576.34;4944540;29;20059;-75
2021/08/18 07:01:51;;;;;;;1.52;1.00;;;;;;;22.67;53.39;101579.81;4910510;29;20099;-75
2021/08/18 07:04:16;;;;;;;1.70;1.08;;;;;;;22.59;53.12;101571.09;4940490;29;20032;-76
2021/08/18 07:06:42;;;;;;;2.00;1.20;;;;;;;22.63;53.46;101582.50;4944063;29;20111;-75
2021/08/18 07:09:08;;;;;;;1.85;1.30;;;;;;;22.62;53.54;101583.38;4942458;29;20051;-76
2021/08/18 07:11:34;;;;;;;1.52;1.05;;;;;;;22.63;53.21;101585.13;4938921;29;20019;-75
2021/08/18 07:14:01;;;;;;;2.20;1.48;;;;;;;22.65;53.37;101583.34;4939195;29;20047;-75
2021/08/18 07:16:31;;;;;;;2.05;1.55;;;;;;;22.63;53.38;101586.00;4938710;29;20035;-76
2021/08/18 07:18:56;;;;;;;1.40;1.00;;;;;;;22.64;53.38;101589.50;4939039;29;20496;-75
2021/08/18 07:21:22;;;;;;;1.17;0.88;;;;;;;22.58;53.16;101571.13;4923121;29;20115;-76
2021/08/18 07:23:50;;;;;;;1.92;1.40;;;;;;;22.66;53.38;101590.38;4939575;29;20030;-76
2021/08/18 07:26:16;;;;;;;1.63;1.15;;;;;;;22.64;53.31;101579.84;4938874;29;20512;-76
2021/08/18 07:28:42;;;;;;;1.58;1.13;;;;;;;22.65;53.38;101584.22;4938516;29;20382;-75
2021/08/18 07:31:09;;;;;;;2.15;1.40;;;;;;;22.63;53.50;101580.72;4938493;29;20067;-75
2021/08/18 07:33:34;;;;;;;1.42;1.20;;;;;;;22.62;53.26;101575.47;4955549;29;20486;-75
2021/08/18 07:36:00;;;;;;;1.40;1.00;;;;;;;22.62;53.45;101573.69;4909930;29;20130;-76
2021/08/18 07:38:25;;;;;;;2.92;1.40;;;;;;;22.64;53.38;101577.19;4925725;29;20118;-75
2021/08/18 07:40:50;;;;;;;1.95;1.55;;;;;;;22.59;53.60;101567.63;4941169;29;20074;-76
2021/08/18 07:43:16;;;;;;;2.30;1.33;;;;;;;22.66;53.35;101579.81;4941607;29;20035;-77
2021/08/18 07:45:41;;;;;;;1.95;1.50;;;;;;;22.59;53.53;101567.63;4941422;29;20497;-75
2021/08/18 07:48:07;;;;;;;2.75;1.52;;;;;;;22.62;53.49;101570.19;4941115;29;20448;-75
2021/08/18 07:50:33;;;;;;;1.58;0.98;;;;;;;22.63;53.32;101569.31;4925289;29;20086;-78
2021/08/18 07:52:58;;;;;;;1.58;1.05;;;;;;;22.65;53.39;101578.94;4924705;29;20089;-75
2021/08/18 07:55:23;;;;;;;1.38;1.25;;;;;;;22.55;53.31;101552.72;4925335;29;20122;-75
2021/08/18 07:57:49;;;;;;;1.85;1.20;;;;;;;22.68;53.38;101588.59;4924269;29;20031;-75
2021/08/18 08:00:16;;;;;;;1.80;1.33;;;;;;;22.66;53.29;101575.44;4940741;29;20039;-76
2021/08/18 08:02:45;;;;;;;1.70;1.17;;;;;;;22.64;53.51;101576.31;4925135;29;20027;-76
2021/08/18 08:05:11;;;;;;;1.65;1.05;;;;;;;22.66;53.58;101575.44;4958496;29;20446;-76
2021/08/18 08:07:37;;;;;;;1.27;0.90;;;;;;;22.65;53.51;101570.16;4940914;29;20015;-75
2021/08/18 08:10:05;;;;;;;1.38;0.88;;;;;;;22.67;53.52;101578.94;4909154;29;20118;-75
2021/08/18 08:12:31;;;;;;;2.50;1.40;;;;;;;22.63;53.38;101570.19;4908227;29;20027;-75
2021/08/18 08:14:56;;;;;;;2.05;1.30;;;;;;;22.67;53.29;101578.94;4923584;29;20389;-75
2021/08/18 08:17:22;;;;;;;1.90;1.20;;;;;;;22.68;53.62;101576.28;4939056;29;20035;-75
2021/08/18 08:19:47;;;;;;;2.08;1.48;;;;;;;22.65;53.42;101572.81;4939058;29;20046;-75
2021/08/18 08:22:12;;;;;;;1.73;1.10;;;;;;;22.67;53.43;101577.19;4923375;29;20027;-75
2021/08/18 08:24:38;;;;;;;2.15;1.20;;;;;;;22.63;53.52;101567.53;4922725;29;20178;-71
2021/08/18 08:27:03;;;;;;;1.70;1.08;;;;;;;22.64;53.41;101573.69;4938774;29;20061;-73
2021/08/18 08:29:29;;;;;;;2.10;1.65;;;;;;;22.68;53.51;101581.56;4923064;29;20028;-73
2021/08/18 08:31:54;;;;;;;1.60;1.15;;;;;;;22.62;53.51;101570.19;4955664;29;20138;-74
2021/08/18 08:34:21;;;;;;;1.35;0.95;;;;;;;22.66;53.58;101574.56;4923679;29;20039;-75
2021/08/18 08:36:47;;;;;;;2.15;1.27;;;;;;;22.65;53.43;101571.03;4924013;29;20034;-72
2021/08/18 08:39:12;;;;;;;2.28;1.25;;;;;;;22.70;53.56;101573.63;4955607;29;20102;-75
2021/08/18 08:41:38;;;;;;;1.40;1.27;;;;;;;22.70;53.53;101571.88;4923344;29;20593;-74
2021/08/18 08:44:05;;;;;;;3.08;1.63;;;;;;;22.69;53.36;101574.53;4922999;29;20482;-73
2021/08/18 08:46:31;;;;;;;1.73;1.27;;;;;;;22.71;53.57;101578.03;4922819;29;20038;-75
2021/08/18 08:48:57;;;;;;;2.08;1.10;;;;;;;22.72;53.52;101571.88;4907311;29;20474;-73
2021/08/18 08:51:22;;;;;;;1.67;1.30;;;;;;;22.70;53.35;101579.78;4938821;29;20082;-73
2021/08/18 08:53:47;;;;;;;1.10;0.93;;;;;;;22.74;53.38;101585.88;4924456;29;20500;-79
2021/08/18 08:56:13;;;;;;;1.52;1.05;;;;;;;22.74;53.64;101575.34;4926084;29;20031;-75
2021/08/18 08:58:38;;;;;;;1.42;1.02;;;;;;;22.67;53.49;101563.13;4941203;29;20036;-75
2021/08/18 09:01:04;;;;;;;1.50;1.00;;;;;;;22.70;53.59;101566.59;4941280;29;20473;-79
2021/08/18 09:03:29;;;;;;;2.25;1.58;;;;;;;22.71;53.61;101578.03;4926554;29;20089;-75
2021/08/18 09:06:03;;;;;;;1.70;1.00;;;;;;;22.72;53.65;101571.88;4925066;29;20062;-74
2021/08/18 09:08:28;;;;;;;;;;;;;;;22.73;53.57;101571.81;4956679;29;20099;-74
2021/08/18 09:11:11;;;;;;;1.95;1.13;;;;;;;22.73;53.63;101565.66;4923031;29;20013;-73
2021/08/18 09:13:42;;;;;;;2.92;2.25;;;;;;;22.73;53.76;101571.81;4939287;29;20073;-75
2021/08/18 09:16:08;;;;;;;2.72;1.05;;;;;;;22.70;53.39;101563.09;4939102;29;20106;-74
2021/08/18 09:18:50;;;;;;;1.67;1.13;;;;;;;22.73;53.46;101569.19;4939075;29;20557;-74
2021/08/18 09:21:36;;;;;;;1.40;0.90;;;;;;;22.75;53.44;101562.13;4922467;29;20036;-74
2021/08/18 09:24:10;;;;;;;1.63;1.02;;;;;;;22.75;53.50;101570.03;4938411;29;20031;-73
2021/08/18 09:26:36;;;;;;;1.35;1.10;;;;;;;22.75;53.56;101564.78;4938394;29;20045;-74
2021/08/18 09:29:01;;;;;;;1.52;0.98;;;;;;;22.76;53.23;101560.41;4938329;29;20036;-73
2021/08/18 09:31:27;;;;;;;1.70;1.00;;;;;;;22.75;53.46;101572.69;4922218;29;20035;-73
2021/08/18 09:33:56;;;;;;;2.47;1.42;;;;;;;22.74;53.56;101560.38;4938231;29;20051;-74
2021/08/18 09:36:23;;;;;;;2.58;1.15;;;;;;;22.74;53.40;101563.03;4939865;29;20037;-74
2021/08/18 09:38:49;;;;;;;1.63;1.13;;;;;;;22.71;53.48;101556.94;4958951;29;20090;-73
2021/08/18 09:41:18;;;;;;;1.95;1.30;;;;;;;22.74;53.30;101564.78;4958980;29;20513;-74
2021/08/18 09:43:43;;;;;;;1.92;1.38;;;;;;;22.70;53.49;101557.81;4942118;29;20086;-75
2021/08/18 09:46:09;;;;;;;1.70;1.00;;;;;;;22.73;53.65;101557.75;4942285;29;20389;-73
2021/08/18 09:48:37;;;;;;;1.23;0.95;;;;;;;22.73;53.45;101558.63;4941671;29;20034;-73
2021/08/18 09:51:05;;;;;;;3.35;1.45;;;;;;;22.74;53.49;101559.50;4925963;29;20107;-73
2021/08/18 09:53:42;;;;;;;1.50;1.20;;;;;;;22.75;53.46;101570.03;4958660;29;20031;-73
2021/08/18 09:56:12;;;;;;;1.30;1.00;;;;;;;22.73;53.34;101563.03;4958761;29;20023;-74
2021/08/18 09:58:47;;;;;;;1.85;1.33;;;;;;;22.76;53.43;101569.19;4925747;29;20230;-73
2021/08/18 10:01:15;;;;;;;1.35;1.10;;;;;;;22.76;53.45;101565.69;4958685;29;20489;-73
2021/08/18 10:03:49;;;;;;;2.05;1.20;;;;;;;22.69;53.49;101559.59;4958574;29;20082;-74
2021/08/18 10:06:15;;;;;;;1.70;1.30;;;;;;;22.73;53.45;101566.53;4925683;29;20031;-74
2021/08/18 10:08:43;;;;;;;1.80;1.10;;;;;;;22.75;53.34;101564.78;4926005;29;20363;-75
2021/08/18 10:11:17;;;;;;;1.98;1.30;;;;;;;22.74;53.45;101555.13;4941438;29;20035;-73
2021/08/18 10:13:43;;;;;;;1.48;1.10;;;;;;;22.77;53.44;101557.75;4941502;29;20082;-73
2021/08/18 10:16:09;;;;;;;2.30;1.10;;;;;;;22.78;53.40;101556.88;4941376;29;20038;-74
2021/08/18 10:18:46;;;;;;;1.52;1.10;;;;;;;22.72;53.34;101541.06;4945646;29;20035;-76
2021/08/18 10:21:31;;;;;;;2.08;1.05;;;;;;;22.79;53.34;101555.97;4963367;29;20038;-75
2021/08/18 10:23:58;;;;;;;1.48;0.90;;;;;;;22.78;53.49;101548.97;4941308;29;20366;-73
2021/08/18 10:26:39;;;;;;;1.73;1.30;;;;;;;22.80;53.41;101552.44;4958276;29;20366;-74
2021/08/18 10:29:34;;;;;;;2.47;1.25;;;;;;;22.80;53.36;101549.81;4958793;29;20370;-73
2021/08/18 10:32:02;;;;;;;1.63;1.20;;;;;;;22.83;53.29;101553.31;4940791;29;20043;-73
2021/08/18 10:34:43;;;;;;;4.15;1.58;;;;;;;22.83;53.21;101551.56;4958244;29;20418;-73
2021/08/18 10:37:11;;;;;;;1.75;1.27;;;;;;;22.83;53.40;101541.00;4940793;29;20491;-74
2021/08/18 10:39:40;;;;;;;1.80;1.38;;;;;;;22.80;53.52;101541.03;4941183;29;20023;-74
2021/08/18 10:42:36;;;;;;;2.20;1.30;;;;;;;22.85;53.44;101541.81;4958185;29;20034;-72
2021/08/18 10:45:18;;;;;;;1.70;1.20;;;;;;;22.86;53.36;101540.06;4921821;29;20105;-73
2021/08/18 10:47:43;;;;;;;2.60;1.13;;;;;;;22.83;53.28;101538.38;4957674;28;20082;-74
2021/08/18 10:50:12;;;;;;;2.50;1.10;;;;;;;22.86;53.21;101547.97;4925097;29;20039;-73
2021/08/18 10:52:37;;;;;;;1.38;1.15;;;;;;;22.87;53.27;101544.44;4940585;29;20102;-73
2021/08/18 10:55:24;;;;;;;2.88;1.50;;;;;;;22.86;53.31;101548.84;4957747;29;20023;-73
2021/08/18 10:58:01;;;;;;;1.23;1.00;;;;;;;22.83;53.19;101538.38;4957811;29;20103;-74
2021/08/18 11:00:40;;;;;;;1.70;1.25;;;;;;;22.87;53.44;101545.31;4940494;29;20039;-73
2021/08/18 11:03:14;;;;;;;2.40;1.48;;;;;;;22.87;53.32;101545.31;4958054;29;20118;-74
2021/08/18 11:05:39;;;;;;;2.33;1.63;;;;;;;22.87;53.32;101542.69;4940345;29;20073;-73
2021/08/18 11:08:23;;;;;;;1.60;1.40;;;;;;;22.89;53.28;101542.66;4941282;29;20469;-75
2021/08/18 11:10:53;;;;;;;2.28;1.13;;;;;;;22.88;53.46;101540.94;4944983;29;20520;-75
2021/08/18 11:13:53;;;;;;;1.55;1.20;;;;;;;22.88;53.26;101540.94;4945753;29;20043;-76
2021/08/18 11:16:26;;;;;;;1.75;1.42;;;;;;;22.84;53.21;101540.13;4944567;29;20026;-75
2021/08/18 11:19:03;;;;;;;1.88;1.25;;;;;;;22.86;53.10;101540.06;4944943;29;20034;-76
2021/08/18 11:21:31;;;;;;;1.88;1.30;;;;;;;22.92;53.32;101542.66;4945019;29;20039;-76
2021/08/18 11:23:58;;;;;;;2.25;1.38;;;;;;;22.91;53.20;101540.91;4945457;29;20030;-76
2021/08/18 11:26:26;;;;;;;1.77;1.20;;;;;;;22.92;53.17;101540.88;4962570;29;20033;-76
2021/08/18 11:29:01;;;;;;;1.27;1.00;;;;;;;22.91;53.11;101539.13;4944724;29;20061;-75
2021/08/18 11:31:35;;;;;;;2.13;1.35;;;;;;;22.91;53.03;101544.41;4943484;29;20057;-75
2021/08/18 11:34:02;;;;;;;1.50;1.20;;;;;;;22.92;53.21;101540.00;4944243;29;20047;-75